createdAt,value
2022-11-25T00:00:06.002Z,-11072.16
2022-11-25T00:03:27.826Z,-11072.28
2022-11-25T00:06:35.861Z,-11071.03
2022-11-25T00:09:56.249Z,-11067.50
2022-11-25T00:13:02.549Z,-11065.69
2022-11-25T00:16:10.887Z,-11068.63
2022-11-25T00:19:18.804Z,-11071.72
2022-11-25T00:22:25.150Z,-11071.16
2022-11-25T00:25:31.517Z,-11070.19
2022-11-25T00:28:38.253Z,-11070.88
2022-11-25T00:31:44.511Z,-11075.94
2022-11-25T00:34:52.523Z,-11072.84
2022-11-25T00:37:58.854Z,-11071.44
2022-11-25T00:41:21.902Z,-11071.88
2022-11-25T00:44:39.162Z,-11072.16
2022-11-25T00:47:45.788Z,-11071.59
2022-11-25T00:50:53.244Z,-11068.91
2022-11-25T00:53:59.458Z,-11069.91
2022-11-25T00:57:05.987Z,-11069.75
2022-11-25T01:00:13.915Z,-11070.88
2022-11-25T01:03:20.205Z,-11068.91
2022-11-25T01:06:28.209Z,-11068.22
2022-11-25T01:09:48.530Z,-11071.16
2022-11-25T01:12:55.255Z,-11070.75
2022-11-25T01:16:03.104Z,-11069.75
2022-11-25T01:19:09.528Z,-11069.19
2022-11-25T01:22:31.416Z,-11066.94
2022-11-25T01:25:38.149Z,-11066.25
2022-11-25T01:28:44.489Z,-11070.03
2022-11-25T01:31:51.545Z,-11070.31
2022-11-25T01:34:57.561Z,-11068.91
2022-11-25T01:38:18.914Z,-11067.94
2022-11-25T01:41:27.710Z,-11068.91
2022-11-25T01:44:34.828Z,-11067.09
2022-11-25T01:47:41.547Z,-11065.84
2022-11-25T01:51:02.616Z,-11069.19
2022-11-25T01:54:28.664Z,-11065.00
2022-11-25T01:57:40.646Z,-11067.37
2022-11-25T02:00:51.505Z,-11066.13
2022-11-25T02:04:00.094Z,-11067.50
2022-11-25T02:07:11.899Z,-11066.66
2022-11-25T02:10:23.757Z,-11066.53
2022-11-25T02:13:30.415Z,-11067.94
2022-11-25T02:16:36.971Z,-11068.06
2022-11-25T02:19:59.754Z,-11070.19
2022-11-25T02:23:14.983Z,-11066.94
2022-11-25T02:26:22.985Z,-11066.53
2022-11-25T02:29:29.623Z,-11069.47
2022-11-25T02:32:36.249Z,-11065.28
2022-11-25T02:35:44.796Z,-11068.50
2022-11-25T03:56:02.719Z,-11024.44
2022-11-25T03:59:09.105Z,-11022.91
2022-11-25T04:02:15.533Z,-11029.91
2022-11-25T04:05:21.898Z,-11034.69
2022-11-25T04:08:28.514Z,-11036.50
2022-11-25T04:11:54.044Z,-11038.34
2022-11-25T04:15:00.165Z,-11042.53
2022-11-25T04:18:06.524Z,-11047.03
2022-11-25T04:21:12.685Z,-11051.50
2022-11-25T04:24:18.684Z,-11053.75
2022-11-25T04:27:26.073Z,-11056.56
2022-11-25T04:30:32.152Z,-11054.59
2022-11-25T04:33:38.930Z,-11055.03
2022-11-25T04:36:45.633Z,-11053.91
2022-11-25T04:39:52.295Z,-11056.28
2022-11-25T04:43:06.038Z,-11056.16
2022-11-25T04:46:17.834Z,-11055.16
2022-11-25T04:49:24.236Z,-11056.16
2022-11-25T04:52:30.761Z,-11055.16
2022-11-25T04:55:37.019Z,-11054.88
2022-11-25T04:59:01.061Z,-11054.59
2022-11-25T05:02:07.699Z,-11057.13
2022-11-25T05:05:14.238Z,-11056.84
2022-11-25T05:08:20.643Z,-11055.59
2022-11-25T05:11:27.099Z,-11054.47
2022-11-25T05:14:35.953Z,-11056.56
2022-11-25T05:17:42.557Z,-11057.84
2022-11-25T05:20:48.540Z,-11057.56
2022-11-25T05:23:56.346Z,-11058.81
2022-11-25T05:27:02.805Z,-11055.16
2022-11-25T05:30:11.555Z,-11058.53
2022-11-25T05:33:17.858Z,-11060.34
2022-11-25T05:36:24.031Z,-11060.22
2022-11-25T05:39:30.395Z,-11061.06
2022-11-25T05:42:36.571Z,-11061.19
2022-11-25T05:45:44.487Z,-11063.03
2022-11-25T05:48:54.552Z,-11064.16
2022-11-25T05:52:01.398Z,-11064.56
2022-11-25T05:55:08.766Z,-11062.75
2022-11-25T05:58:14.791Z,-11066.13
2022-11-25T06:01:22.687Z,-11065.69
2022-11-25T06:04:28.950Z,-11066.81
2022-11-25T06:07:35.434Z,-11068.63
2022-11-25T06:10:41.845Z,-11065.84
2022-11-25T06:13:48.464Z,-11068.91
2022-11-25T06:16:56.418Z,-11067.94
2022-11-25T06:20:02.765Z,-11069.19
2022-11-25T06:23:09.265Z,-11076.34
2022-11-25T06:26:17.593Z,-11079.72
2022-11-25T06:29:24.214Z,-11082.69
2022-11-25T06:32:35.239Z,-11088.72
2022-11-25T06:35:43.865Z,-11090.25
2022-11-25T06:38:52.417Z,-11088.44
2022-11-25T06:41:58.766Z,-11090.25
2022-11-25T06:45:05.683Z,-11090.53
2022-11-25T06:48:13.579Z,-11095.16
2022-11-25T06:51:19.766Z,-11099.53
2022-11-25T06:54:25.890Z,-11098.13
2022-11-25T06:57:32.119Z,-11099.81
2022-11-25T07:00:38.666Z,-11104.44
2022-11-25T07:03:47.353Z,-11105.72
2022-11-25T07:06:53.679Z,-11103.19
2022-11-25T07:10:00.265Z,-11106.97
2022-11-25T07:13:06.430Z,-11107.97
2022-11-25T07:16:13.868Z,-11111.88
2022-11-25T07:19:21.574Z,-11118.63
2022-11-25T07:22:28.092Z,-11120.31
2022-11-25T07:25:34.853Z,-11121.44
2022-11-25T07:28:42.071Z,-11121.28
2022-11-25T07:31:51.053Z,-11122.84
2022-11-25T07:34:58.706Z,-11120.88
2022-11-25T07:38:05.184Z,-11125.09
2022-11-25T07:41:13.412Z,-11132.25
2022-11-25T07:44:20.000Z,-11130.56
2022-11-25T07:47:26.537Z,-11129.72
2022-11-25T07:50:34.095Z,-11130.13
2022-11-25T07:53:40.143Z,-11142.50
2022-11-25T07:56:46.753Z,-11136.88
2022-11-25T07:59:53.144Z,-11135.75
2022-11-25T08:02:59.651Z,-11136.59
2022-11-25T08:06:09.613Z,-11129.03
2022-11-25T08:09:19.459Z,-11138.00
2022-11-25T08:12:25.818Z,-11139.97
2022-11-25T08:15:31.707Z,-11131.69
2022-11-25T08:18:38.233Z,-11141.66
2022-11-25T08:21:48.049Z,-11139.28
2022-11-25T08:24:54.274Z,-11145.31
2022-11-25T08:28:01.003Z,-11136.59
2022-11-25T08:31:10.522Z,-11139.69
2022-11-25T08:34:20.616Z,-11141.38
2022-11-25T08:37:28.514Z,-11134.22
2022-11-25T08:40:35.531Z,-11145.03
2022-11-25T08:43:42.356Z,-11137.72
2022-11-25T08:46:48.616Z,-11150.78
2022-11-25T08:49:56.283Z,-11152.75
2022-11-25T08:53:03.965Z,-11147.56
2022-11-25T08:56:10.750Z,-11153.75
2022-11-25T08:59:16.915Z,-11156.28
2022-11-25T09:02:23.192Z,-11162.03
2022-11-25T09:05:35.798Z,-11159.50
2022-11-25T09:08:44.680Z,-11153.47
2022-11-25T09:11:51.299Z,-11162.75
2022-11-25T09:15:01.822Z,-11159.94
2022-11-25T09:18:10.329Z,-11165.41
2022-11-25T09:21:18.552Z,-11170.91
2022-11-25T09:24:26.477Z,-11175.09
2022-11-25T09:27:33.901Z,-11175.09
2022-11-25T09:30:40.349Z,-11176.50
2022-11-25T09:33:46.741Z,-11177.78
2022-11-25T09:36:53.157Z,-11175.38
2022-11-25T09:40:00.869Z,-11177.91
2022-11-25T09:43:37.192Z,-11173.16
2022-11-25T09:46:57.833Z,-11178.91
2022-11-25T09:50:15.375Z,-11179.47
2022-11-25T09:53:36.900Z,-11184.94
2022-11-25T09:56:48.580Z,-11195.34
2022-11-25T10:00:04.530Z,-11190.16
2022-11-25T10:03:19.951Z,-11188.88
2022-11-25T10:06:28.579Z,-11190.44
2022-11-25T10:09:36.510Z,-11188.59
2022-11-25T10:12:46.133Z,-11187.63
2022-11-25T10:15:53.767Z,-11197.31
2022-11-25T10:19:03.381Z,-11189.59
2022-11-25T10:22:22.844Z,-11191.84
2022-11-25T10:25:32.108Z,-11189.16
2022-11-25T10:28:55.922Z,-11178.91
2022-11-25T10:32:13.267Z,-11181.28
2022-11-25T10:35:28.039Z,-11179.88
2022-11-25T10:38:41.721Z,-11183.53
2022-11-25T10:41:54.539Z,-11189.03
2022-11-25T10:45:08.733Z,-11190.00
2022-11-25T10:48:26.730Z,-11190.00
2022-11-25T10:51:47.412Z,-11184.81
2022-11-25T10:54:59.647Z,-11199.84
2022-11-25T10:58:27.945Z,-11184.09
2022-11-25T11:01:35.836Z,-11181.00
2022-11-25T11:04:54.543Z,-11180.88
2022-11-25T11:08:23.121Z,-11197.31
2022-11-25T11:11:29.450Z,-11198.03
2022-11-25T11:14:36.015Z,-11199.56
2022-11-25T11:17:44.162Z,-11192.25
2022-11-25T11:20:52.571Z,-11189.44
2022-11-25T11:24:00.635Z,-11183.53
2022-11-25T11:27:14.448Z,-11192.25
2022-11-25T11:30:23.804Z,-11188.47
2022-11-25T11:33:35.723Z,-11194.50
2022-11-25T11:37:17.224Z,-11185.50
2022-11-25T11:40:30.063Z,-11190.56
2022-11-25T11:44:05.142Z,-11186.06
2022-11-25T11:47:23.096Z,-11182.28
2022-11-25T11:50:36.721Z,-11185.50
2022-11-25T11:53:54.356Z,-11181.28
2022-11-25T11:57:05.338Z,-11184.66
2022-11-25T12:00:15.034Z,-11176.09
2022-11-25T12:03:25.404Z,-11171.47
2022-11-25T12:06:38.337Z,-11187.75
2022-11-25T12:09:49.000Z,-11190.16
2022-11-25T12:13:00.452Z,-11180.16
2022-11-25T12:16:12.873Z,-11180.03
2022-11-25T12:19:26.628Z,-11183.25
2022-11-25T12:22:38.014Z,-11183.53
2022-11-25T12:25:45.074Z,-11182.13
2022-11-25T12:28:56.665Z,-11178.75
2022-11-25T12:32:18.423Z,-11175.09
2022-11-25T12:35:37.994Z,-11184.38
2022-11-25T12:39:06.053Z,-11174.53
2022-11-25T12:42:16.548Z,-11175.94
2022-11-25T12:45:25.092Z,-11176.38
2022-11-25T12:48:32.497Z,-11171.59
2022-11-25T12:51:59.443Z,-11167.38
2022-11-25T12:55:21.076Z,-11172.03
2022-11-25T12:58:49.602Z,-11177.22
2022-11-25T13:02:25.371Z,-11172.31
2022-11-25T13:05:52.464Z,-11175.94
2022-11-25T13:09:03.878Z,-11165.28
2022-11-25T13:12:22.038Z,-11168.37
2022-11-25T13:15:31.761Z,-11155.44
2022-11-25T13:18:44.983Z,-11163.88
2022-11-25T13:22:02.782Z,-11152.34
2022-11-25T13:25:26.119Z,-11160.22
2022-11-25T13:28:35.361Z,-11151.63
2022-11-25T13:31:59.405Z,-11148.69
2022-11-25T13:35:48.134Z,-11141.09
2022-11-25T13:39:07.023Z,-11127.91
2022-11-25T13:42:21.558Z,-11125.22
2022-11-25T13:45:32.677Z,-11115.97
2022-11-25T13:48:39.375Z,-11116.38
2022-11-25T13:51:50.745Z,-11113.84
2022-11-25T13:54:58.426Z,-11114.69
2022-11-25T13:58:23.343Z,-11110.47
2022-11-25T14:01:31.070Z,-11108.78
2022-11-25T14:04:48.938Z,-11106.97
2022-11-25T14:08:14.964Z,-11106.00
2022-11-25T14:11:53.676Z,-11103.59
2022-11-25T14:15:28.397Z,-11102.47
2022-11-25T14:22:35.868Z,-11102.06
2022-11-25T14:25:51.185Z,-11099.94
2022-11-25T14:29:01.939Z,-11101.50
2022-11-25T14:32:14.635Z,-11096.16
2022-11-25T14:35:28.305Z,-11096.72
2022-11-25T14:38:43.120Z,-11097.69
2022-11-25T14:41:56.226Z,-11095.03
2022-11-25T14:45:03.333Z,-11093.50
2022-11-25T14:48:17.466Z,-11093.50
2022-11-25T14:51:26.778Z,-11090.41
2022-11-25T14:54:33.043Z,-11088.84
2022-11-25T14:57:45.088Z,-11090.81
2022-11-25T15:00:52.354Z,-11091.94
2022-11-25T15:04:07.284Z,-11088.16
2022-11-25T15:07:26.334Z,-11089.00
2022-11-25T15:10:41.634Z,-11089.13
2022-11-25T15:13:50.410Z,-11086.03
2022-11-25T15:16:58.881Z,-11085.47
2022-11-25T15:20:12.776Z,-11081.00
2022-11-25T15:23:27.118Z,-11081.84
2022-11-25T15:26:36.299Z,-11082.81
2022-11-25T15:29:44.890Z,-11083.22
2022-11-25T15:32:52.625Z,-11082.41
2022-11-25T15:35:59.193Z,-11085.47
2022-11-25T15:39:18.589Z,-11088.00
2022-11-25T15:42:28.504Z,-11088.56
2022-11-25T15:45:43.778Z,-11088.72
2022-11-25T15:48:52.153Z,-11088.72
2022-11-25T15:52:02.008Z,-11088.00
2022-11-25T15:55:21.728Z,-11087.16
2022-11-25T15:58:28.174Z,-11087.16
2022-11-25T16:01:35.174Z,-11087.59
2022-11-25T16:04:41.615Z,-11088.56
2022-11-25T16:08:38.602Z,-11087.88
2022-11-25T16:11:47.620Z,-11088.56
2022-11-25T16:14:53.717Z,-11087.59
2022-11-25T16:18:17.897Z,-11086.88
2022-11-25T16:21:30.658Z,-11086.19
2022-11-25T16:24:42.294Z,-11087.31
2022-11-25T16:27:50.506Z,-11087.44
2022-11-25T16:30:59.403Z,-11084.63
2022-11-25T16:34:14.599Z,-11087.88
2022-11-25T16:37:20.960Z,-11082.69
2022-11-25T16:40:28.088Z,-11084.50
2022-11-25T16:43:37.205Z,-11083.78
2022-11-25T16:46:43.535Z,-11084.06
2022-11-25T16:49:50.363Z,-11081.13
2022-11-25T16:52:56.842Z,-11081.56
2022-11-25T16:56:03.867Z,-11079.44
2022-11-25T16:59:17.235Z,-11083.09
2022-11-25T17:02:24.360Z,-11080.16
2022-11-25T17:05:31.200Z,-11079.44
2022-11-25T17:08:38.470Z,-11079.88
2022-11-25T17:11:49.003Z,-11080.44
2022-11-25T17:14:57.038Z,-11079.03
2022-11-25T17:18:05.864Z,-11075.38
2022-11-25T17:21:14.748Z,-11078.75
2022-11-25T17:24:23.334Z,-11077.06
2022-11-25T17:27:32.335Z,-11074.81
2022-11-25T17:30:40.920Z,-11073.00
2022-11-25T17:33:48.914Z,-11071.03
2022-11-25T17:36:55.327Z,-11072.84
2022-11-25T17:40:01.751Z,-11073.12
2022-11-25T17:43:10.497Z,-11073.12
2022-11-25T17:46:18.718Z,-11070.59
2022-11-25T17:49:24.993Z,-11072.44
2022-11-25T17:52:31.206Z,-11069.19
2022-11-25T17:55:39.066Z,-11066.94
2022-11-25T17:58:45.608Z,-11069.47
2022-11-25T18:01:53.436Z,-11068.91
2022-11-25T18:04:59.875Z,-11070.75
2022-11-25T18:08:06.219Z,-11068.91
2022-11-25T18:11:17.921Z,-11067.66
2022-11-25T18:14:28.331Z,-11067.37
2022-11-25T18:17:37.388Z,-11063.16
2022-11-25T18:20:43.559Z,-11065.28
2022-11-25T18:23:49.657Z,-11064.72
2022-11-25T18:26:57.595Z,-11064.28
2022-11-25T18:30:07.340Z,-11062.19
2022-11-25T18:33:15.915Z,-11060.34
2022-11-25T18:36:22.305Z,-11060.22
2022-11-25T18:39:28.684Z,-11062.03
2022-11-25T18:42:34.796Z,-11059.66
2022-11-25T18:45:41.529Z,-11059.66
2022-11-25T18:48:49.272Z,-11057.41
2022-11-25T18:51:55.535Z,-11056.28
2022-11-25T18:55:01.768Z,-11049.84
2022-11-25T18:58:16.677Z,-11045.91
2022-11-25T19:01:24.574Z,-11047.44
2022-11-25T19:04:32.627Z,-11046.59
2022-11-25T19:07:39.209Z,-11039.44
2022-11-25T19:10:47.300Z,-11039.16
2022-11-25T19:13:53.861Z,-11036.78
2022-11-25T19:17:03.030Z,-11036.38
2022-11-25T19:20:16.883Z,-11033.56
2022-11-25T19:23:26.140Z,-11036.38
2022-11-25T19:26:38.003Z,-11034.41
2022-11-25T19:29:45.673Z,-11037.22
2022-11-25T19:32:55.507Z,-11031.03
2022-11-25T19:36:03.448Z,-11026.00
2022-11-25T19:39:17.548Z,-11025.28
2022-11-25T19:42:25.905Z,-11022.91
2022-11-25T19:45:32.193Z,-11019.66
2022-11-25T19:48:40.641Z,-11018.84
2022-11-25T19:51:49.153Z,-11015.75
2022-11-25T19:54:55.513Z,-11016.16
2022-11-25T19:58:02.170Z,-11019.41
2022-11-25T20:01:15.098Z,-11018.41
2022-11-25T20:04:23.455Z,-11010.84
2022-11-25T20:07:32.298Z,-11010.97
2022-11-25T20:10:39.139Z,-11006.63
2022-11-25T20:13:47.004Z,-11011.41
2022-11-25T20:16:53.694Z,-11007.47
2022-11-25T20:20:04.435Z,-11003.81
2022-11-25T20:23:16.380Z,-11003.53
2022-11-25T20:26:29.609Z,-11007.91
2022-11-25T20:29:35.709Z,-11009.56
2022-11-25T20:32:41.978Z,-11002.00
2022-11-25T20:35:51.307Z,-10990.50
2022-11-25T20:38:59.921Z,-10980.84
2022-11-25T20:42:06.748Z,-10976.06
2022-11-25T20:45:16.451Z,-10992.06
2022-11-25T20:48:22.194Z,-10988.13
2022-11-25T20:51:28.364Z,-10990.94
2022-11-25T20:54:36.291Z,-10982.38
2022-11-25T20:57:42.882Z,-10975.66
2022-11-25T21:00:55.552Z,-10973.28
2022-11-25T21:04:03.444Z,-10978.47
2022-11-25T21:07:15.486Z,-10986.44
2022-11-25T21:10:28.501Z,-10983.91
2022-11-25T21:13:34.568Z,-10978.03
2022-11-25T21:16:41.061Z,-10973.41
2022-11-25T21:19:47.674Z,-10972.44
2022-11-25T21:22:56.829Z,-10977.47
2022-11-25T21:26:08.800Z,-10970.31
2022-11-25T21:29:16.895Z,-10978.31
2022-11-25T21:32:24.750Z,-10963.19
2022-11-25T21:35:34.139Z,-10970.75
2022-11-25T21:38:40.576Z,-10978.03
2022-11-25T21:42:00.182Z,-10966.25
2022-11-25T21:45:07.644Z,-10963.47
2022-11-25T21:48:20.441Z,-10967.53
2022-11-25T21:51:26.948Z,-10962.47
2022-11-25T21:54:33.371Z,-10956.59
2022-11-25T21:57:41.372Z,-10962.34
2022-11-25T22:00:51.019Z,-10963.19
2022-11-25T22:03:57.489Z,-10955.34
2022-11-25T22:07:03.414Z,-10943.28
2022-11-25T22:10:10.337Z,-10955.19
2022-11-25T22:13:21.380Z,-10922.97
2022-11-25T22:16:31.212Z,-10926.19
2022-11-25T22:19:37.873Z,-10933.19
2022-11-25T22:22:44.713Z,-10938.94
2022-11-25T22:25:51.542Z,-10950.72
2022-11-25T22:29:00.337Z,-10945.94
2022-11-25T22:32:12.479Z,-10942.31
2022-11-25T22:35:21.647Z,-10927.59
2022-11-25T22:38:29.273Z,-10927.88
2022-11-25T22:41:35.885Z,-10943.69
2022-11-25T22:44:46.839Z,-10943.00
2022-11-25T22:47:53.750Z,-10948.59
2022-11-25T22:51:00.140Z,-10944.81
2022-11-25T22:54:12.528Z,-10947.22
2022-11-25T22:57:19.333Z,-10938.38
2022-11-25T23:00:29.301Z,-10952.09
2022-11-25T23:03:36.575Z,-10944.81
2022-11-25T23:06:43.093Z,-10947.22
2022-11-25T23:09:49.816Z,-10948.31
2022-11-25T23:12:56.562Z,-10942.44
2022-11-25T23:16:06.426Z,-10954.63
2022-11-25T23:19:16.853Z,-10935.03
2022-11-25T23:22:23.463Z,-10923.53
2022-11-25T23:25:29.863Z,-10947.78
2022-11-25T23:28:36.384Z,-10944.97
2022-11-25T23:31:44.303Z,-10931.09
2022-11-25T23:34:51.939Z,-10906.44
2022-11-25T23:37:59.944Z,-10928.16
2022-11-25T23:41:06.417Z,-10939.91
2022-11-25T23:44:16.771Z,-10938.09
2022-11-25T23:47:24.712Z,-10935.56
2022-11-25T23:50:34.084Z,-10948.06
2022-11-25T23:53:42.424Z,-10938.53
2022-11-25T23:56:49.270Z,-10937.25
2022-11-25T23:59:55.776Z,-10931.53
